sensor_id;sensor_type;location;lat;lon;timestamp;P1;durP1;ratioP1;P2;durP2;ratioP2
14474;SDS011;7323;50.848;4.334;2023-09-07T00:00:09;8.83;;;7.40;;
14474;SDS011;7323;50.848;4.334;2023-09-07T00:02:36;10.70;;;6.97;;
14474;SDS011;7323;50.848;4.334;2023-09-07T00:05:01;12.87;;;7.13;;
14474;SDS011;7323;50.848;4.334;2023-09-07T00:07:31;9.73;;;6.87;;
14474;SDS011;7323;50.848;4.334;2023-09-07T00:09:56;8.93;;;7.30;;
14474;SDS011;7323;50.848;4.334;2023-09-07T00:12:22;13.10;;;7.70;;
14474;SDS011;7323;50.848;4.334;2023-09-07T00:14:48;12.57;;;6.83;;
14474;SDS011;7323;50.848;4.334;2023-09-07T00:17:13;10.20;;;7.07;;
14474;SDS011;7323;50.848;4.334;2023-09-07T00:19:39;11.30;;;7.53;;
14474;SDS011;7323;50.848;4.334;2023-09-07T00:22:05;10.97;;;7.47;;
14474;SDS011;7323;50.848;4.334;2023-09-07T00:24:30;11.17;;;7.10;;
14474;SDS011;7323;50.848;4.334;2023-09-07T00:26:57;12.23;;;7.40;;
14474;SDS011;7323;50.848;4.334;2023-09-07T00:29:23;11.53;;;7.30;;
14474;SDS011;7323;50.848;4.334;2023-09-07T00:31:49;13.73;;;7.87;;
14474;SDS011;7323;50.848;4.334;2023-09-07T00:34:14;8.50;;;6.60;;
14474;SDS011;7323;50.848;4.334;2023-09-07T00:36:41;8.87;;;6.50;;
14474;SDS011;7323;50.848;4.334;2023-09-07T00:39:07;8.60;;;7.03;;
14474;SDS011;7323;50.848;4.334;2023-09-07T00:41:33;12.03;;;7.13;;
14474;SDS011;7323;50.848;4.334;2023-09-07T00:43:59;8.73;;;7.07;;
14474;SDS011;7323;50.848;4.334;2023-09-07T00:46:25;10.83;;;7.00;;
14474;SDS011;7323;50.848;4.334;2023-09-07T00:48:51;10.20;;;7.13;;
14474;SDS011;7323;50.848;4.334;2023-09-07T00:51:17;9.53;;;6.90;;
14474;SDS011;7323;50.848;4.334;2023-09-07T00:53:43;9.83;;;6.47;;
14474;SDS011;7323;50.848;4.334;2023-09-07T00:56:09;8.43;;;6.20;;
14474;SDS011;7323;50.848;4.334;2023-09-07T00:58:35;13.33;;;6.87;;
14474;SDS011;7323;50.848;4.334;2023-09-07T01:01:01;8.60;;;6.10;;
14474;SDS011;7323;50.848;4.334;2023-09-07T01:03:28;9.57;;;5.80;;
14474;SDS011;7323;50.848;4.334;2023-09-07T01:06:04;10.00;;;6.23;;
14474;SDS011;7323;50.848;4.334;2023-09-07T01:08:46;6.40;;;5.50;;
14474;SDS011;7323;50.848;4.334;2023-09-07T01:11:15;7.93;;;5.90;;
14474;SDS011;7323;50.848;4.334;2023-09-07T01:13:42;8.50;;;5.97;;
14474;SDS011;7323;50.848;4.334;2023-09-07T01:16:09;7.47;;;5.53;;
14474;SDS011;7323;50.848;4.334;2023-09-07T01:18:35;8.60;;;5.50;;
14474;SDS011;7323;50.848;4.334;2023-09-07T01:21:04;6.00;;;5.13;;
14474;SDS011;7323;50.848;4.334;2023-09-07T01:23:33;6.00;;;5.00;;
14474;SDS011;7323;50.848;4.334;2023-09-07T01:26:06;7.50;;;5.20;;
14474;SDS011;7323;50.848;4.334;2023-09-07T01:28:33;9.27;;;5.00;;
14474;SDS011;7323;50.848;4.334;2023-09-07T01:31:00;9.03;;;5.10;;
14474;SDS011;7323;50.848;4.334;2023-09-07T01:33:28;7.23;;;4.53;;
14474;SDS011;7323;50.848;4.334;2023-09-07T01:35:54;6.93;;;4.97;;
14474;SDS011;7323;50.848;4.334;2023-09-07T01:38:20;5.80;;;4.67;;
14474;SDS011;7323;50.848;4.334;2023-09-07T01:40:46;7.87;;;4.70;;
14474;SDS011;7323;50.848;4.334;2023-09-07T01:43:12;7.77;;;4.57;;
14474;SDS011;7323;50.848;4.334;2023-09-07T01:45:38;6.17;;;4.50;;
14474;SDS011;7323;50.848;4.334;2023-09-07T01:48:05;10.13;;;4.87;;
14474;SDS011;7323;50.848;4.334;2023-09-07T01:50:34;6.27;;;4.60;;
14474;SDS011;7323;50.848;4.334;2023-09-07T01:53:01;7.97;;;5.40;;
14474;SDS011;7323;50.848;4.334;2023-09-07T01:55:28;5.90;;;4.70;;
14474;SDS011;7323;50.848;4.334;2023-09-07T01:57:54;6.50;;;4.77;;
14474;SDS011;7323;50.848;4.334;2023-09-07T02:00:20;6.27;;;4.60;;
14474;SDS011;7323;50.848;4.334;2023-09-07T02:02:45;6.90;;;5.00;;
14474;SDS011;7323;50.848;4.334;2023-09-07T02:05:11;8.03;;;5.77;;
14474;SDS011;7323;50.848;4.334;2023-09-07T02:07:37;9.50;;;5.10;;
14474;SDS011;7323;50.848;4.334;2023-09-07T02:10:03;7.40;;;4.50;;
14474;SDS011;7323;50.848;4.334;2023-09-07T02:15:02;6.43;;;5.37;;
14474;SDS011;7323;50.848;4.334;2023-09-07T02:17:32;8.20;;;5.00;;
14474;SDS011;7323;50.848;4.334;2023-09-07T02:19:58;6.27;;;4.80;;
14474;SDS011;7323;50.848;4.334;2023-09-07T02:22:26;7.00;;;4.23;;
14474;SDS011;7323;50.848;4.334;2023-09-07T02:24:52;6.60;;;5.07;;
14474;SDS011;7323;50.848;4.334;2023-09-07T02:27:18;7.00;;;4.77;;
14474;SDS011;7323;50.848;4.334;2023-09-07T02:29:44;6.67;;;5.20;;
14474;SDS011;7323;50.848;4.334;2023-09-07T02:32:09;12.47;;;6.53;;
14474;SDS011;7323;50.848;4.334;2023-09-07T02:34:35;8.23;;;5.53;;
14474;SDS011;7323;50.848;4.334;2023-09-07T02:37:03;11.37;;;5.30;;
14474;SDS011;7323;50.848;4.334;2023-09-07T02:39:32;9.17;;;6.23;;
14474;SDS011;7323;50.848;4.334;2023-09-07T02:41:58;9.23;;;5.93;;
14474;SDS011;7323;50.848;4.334;2023-09-07T02:44:23;10.97;;;6.40;;
14474;SDS011;7323;50.848;4.334;2023-09-07T02:46:49;10.07;;;6.50;;
14474;SDS011;7323;50.848;4.334;2023-09-07T02:49:15;9.27;;;6.60;;
14474;SDS011;7323;50.848;4.334;2023-09-07T02:51:40;8.47;;;6.27;;
14474;SDS011;7323;50.848;4.334;2023-09-07T02:54:06;8.23;;;6.30;;
14474;SDS011;7323;50.848;4.334;2023-09-07T02:56:32;9.60;;;5.70;;
14474;SDS011;7323;50.848;4.334;2023-09-07T02:58:58;9.00;;;6.37;;
14474;SDS011;7323;50.848;4.334;2023-09-07T03:01:24;6.73;;;5.67;;
14474;SDS011;7323;50.848;4.334;2023-09-07T03:03:50;8.27;;;6.70;;
14474;SDS011;7323;50.848;4.334;2023-09-07T03:06:16;10.67;;;7.40;;
14474;SDS011;7323;50.848;4.334;2023-09-07T03:08:42;10.97;;;6.80;;
14474;SDS011;7323;50.848;4.334;2023-09-07T03:11:08;10.33;;;7.30;;
14474;SDS011;7323;50.848;4.334;2023-09-07T03:13:35;8.90;;;7.17;;
14474;SDS011;7323;50.848;4.334;2023-09-07T03:16:02;7.80;;;6.53;;
14474;SDS011;7323;50.848;4.334;2023-09-07T03:18:28;8.37;;;6.30;;
14474;SDS011;7323;50.848;4.334;2023-09-07T03:20:55;9.90;;;6.30;;
14474;SDS011;7323;50.848;4.334;2023-09-07T03:23:23;9.53;;;6.60;;
14474;SDS011;7323;50.848;4.334;2023-09-07T03:25:49;7.37;;;6.40;;
14474;SDS011;7323;50.848;4.334;2023-09-07T03:28:15;9.00;;;6.97;;
14474;SDS011;7323;50.848;4.334;2023-09-07T03:30:41;12.23;;;6.73;;
14474;SDS011;7323;50.848;4.334;2023-09-07T03:33:07;8.70;;;6.87;;
14474;SDS011;7323;50.848;4.334;2023-09-07T03:35:32;10.17;;;7.30;;
14474;SDS011;7323;50.848;4.334;2023-09-07T03:37:59;9.00;;;6.67;;
14474;SDS011;7323;50.848;4.334;2023-09-07T03:40:25;11.20;;;7.47;;
14474;SDS011;7323;50.848;4.334;2023-09-07T03:42:51;9.80;;;7.30;;
14474;SDS011;7323;50.848;4.334;2023-09-07T03:45:17;11.83;;;7.20;;
14474;SDS011;7323;50.848;4.334;2023-09-07T03:47:42;9.37;;;6.70;;
14474;SDS011;7323;50.848;4.334;2023-09-07T03:50:09;9.83;;;6.60;;
14474;SDS011;7323;50.848;4.334;2023-09-07T03:52:36;10.50;;;7.90;;
14474;SDS011;7323;50.848;4.334;2023-09-07T03:55:04;10.77;;;6.93;;
14474;SDS011;7323;50.848;4.334;2023-09-07T03:57:32;12.43;;;7.40;;
14474;SDS011;7323;50.848;4.334;2023-09-07T03:59:58;13.23;;;7.00;;
14474;SDS011;7323;50.848;4.334;2023-09-07T04:02:26;10.20;;;7.10;;
14474;SDS011;7323;50.848;4.334;2023-09-07T04:04:52;8.60;;;6.60;;
14474;SDS011;7323;50.848;4.334;2023-09-07T04:07:19;10.30;;;7.57;;
14474;SDS011;7323;50.848;4.334;2023-09-07T04:09:46;14.37;;;8.07;;
14474;SDS011;7323;50.848;4.334;2023-09-07T04:12:13;11.57;;;8.00;;
14474;SDS011;7323;50.848;4.334;2023-09-07T04:14:39;9.70;;;6.23;;
14474;SDS011;7323;50.848;4.334;2023-09-07T04:17:06;13.73;;;7.23;;
14474;SDS011;7323;50.848;4.334;2023-09-07T04:19:32;12.13;;;6.87;;
14474;SDS011;7323;50.848;4.334;2023-09-07T04:21:58;14.27;;;8.00;;
14474;SDS011;7323;50.848;4.334;2023-09-07T04:24:23;8.23;;;6.83;;
14474;SDS011;7323;50.848;4.334;2023-09-07T04:26:49;13.43;;;7.47;;
14474;SDS011;7323;50.848;4.334;2023-09-07T04:29:16;11.27;;;7.13;;
14474;SDS011;7323;50.848;4.334;2023-09-07T04:31:42;11.13;;;7.67;;
14474;SDS011;7323;50.848;4.334;2023-09-07T04:34:07;11.67;;;7.63;;
14474;SDS011;7323;50.848;4.334;2023-09-07T04:36:36;16.00;;;7.37;;
14474;SDS011;7323;50.848;4.334;2023-09-07T04:39:04;14.90;;;7.93;;
14474;SDS011;7323;50.848;4.334;2023-09-07T04:41:32;12.73;;;7.23;;
14474;SDS011;7323;50.848;4.334;2023-09-07T04:46:30;11.50;;;7.50;;
14474;SDS011;7323;50.848;4.334;2023-09-07T04:51:27;15.47;;;7.70;;
14474;SDS011;7323;50.848;4.334;2023-09-07T04:53:59;12.70;;;8.30;;
14474;SDS011;7323;50.848;4.334;2023-09-07T04:56:28;15.13;;;7.63;;
14474;SDS011;7323;50.848;4.334;2023-09-07T04:58:54;14.73;;;8.37;;
14474;SDS011;7323;50.848;4.334;2023-09-07T05:01:19;17.47;;;8.93;;
14474;SDS011;7323;50.848;4.334;2023-09-07T05:06:25;16.90;;;7.90;;
14474;SDS011;7323;50.848;4.334;2023-09-07T05:08:54;14.93;;;8.07;;
14474;SDS011;7323;50.848;4.334;2023-09-07T05:11:32;12.43;;;8.23;;
14474;SDS011;7323;50.848;4.334;2023-09-07T05:20:36;13.37;;;8.60;;
14474;SDS011;7323;50.848;4.334;2023-09-07T05:23:08;15.40;;;8.13;;
14474;SDS011;7323;50.848;4.334;2023-09-07T05:28:56;16.70;;;7.90;;
14474;SDS011;7323;50.848;4.334;2023-09-07T05:31:27;17.23;;;8.50;;
14474;SDS011;7323;50.848;4.334;2023-09-07T05:33:56;12.13;;;7.77;;
14474;SDS011;7323;50.848;4.334;2023-09-07T05:36:24;13.23;;;8.57;;
14474;SDS011;7323;50.848;4.334;2023-09-07T05:38:54;15.57;;;9.13;;
14474;SDS011;7323;50.848;4.334;2023-09-07T05:41:19;15.47;;;8.67;;
14474;SDS011;7323;50.848;4.334;2023-09-07T05:43:45;14.33;;;8.87;;
14474;SDS011;7323;50.848;4.334;2023-09-07T05:46:11;17.20;;;9.10;;
14474;SDS011;7323;50.848;4.334;2023-09-07T05:48:38;16.23;;;7.87;;
14474;SDS011;7323;50.848;4.334;2023-09-07T05:51:03;20.13;;;8.57;;
14474;SDS011;7323;50.848;4.334;2023-09-07T05:53:29;14.93;;;8.33;;
14474;SDS011;7323;50.848;4.334;2023-09-07T05:55:55;23.93;;;8.90;;
14474;SDS011;7323;50.848;4.334;2023-09-07T05:58:21;18.30;;;8.73;;
14474;SDS011;7323;50.848;4.334;2023-09-07T06:00:46;20.40;;;8.80;;
14474;SDS011;7323;50.848;4.334;2023-09-07T06:03:12;15.07;;;9.50;;
14474;SDS011;7323;50.848;4.334;2023-09-07T06:05:38;16.47;;;9.03;;
14474;SDS011;7323;50.848;4.334;2023-09-07T06:08:04;17.40;;;8.07;;
14474;SDS011;7323;50.848;4.334;2023-09-07T06:10:34;17.27;;;8.83;;
14474;SDS011;7323;50.848;4.334;2023-09-07T06:13:00;16.70;;;8.70;;
14474;SDS011;7323;50.848;4.334;2023-09-07T06:15:26;18.67;;;9.10;;
14474;SDS011;7323;50.848;4.334;2023-09-07T06:17:52;17.63;;;8.20;;
14474;SDS011;7323;50.848;4.334;2023-09-07T06:20:19;14.40;;;8.73;;
14474;SDS011;7323;50.848;4.334;2023-09-07T06:22:45;14.47;;;8.63;;
14474;SDS011;7323;50.848;4.334;2023-09-07T06:25:12;17.50;;;8.63;;
14474;SDS011;7323;50.848;4.334;2023-09-07T06:27:38;17.03;;;9.07;;
14474;SDS011;7323;50.848;4.334;2023-09-07T06:30:05;22.37;;;9.77;;
14474;SDS011;7323;50.848;4.334;2023-09-07T06:32:33;22.23;;;9.13;;
14474;SDS011;7323;50.848;4.334;2023-09-07T06:34:59;19.67;;;9.33;;
14474;SDS011;7323;50.848;4.334;2023-09-07T06:37:24;18.40;;;10.47;;
14474;SDS011;7323;50.848;4.334;2023-09-07T06:39:50;22.77;;;9.17;;
14474;SDS011;7323;50.848;4.334;2023-09-07T06:42:17;17.10;;;8.73;;
14474;SDS011;7323;50.848;4.334;2023-09-07T06:44:43;14.33;;;8.67;;
14474;SDS011;7323;50.848;4.334;2023-09-07T06:47:10;18.27;;;8.80;;
14474;SDS011;7323;50.848;4.334;2023-09-07T06:49:37;14.83;;;8.97;;
14474;SDS011;7323;50.848;4.334;2023-09-07T06:52:03;14.73;;;8.53;;
14474;SDS011;7323;50.848;4.334;2023-09-07T06:54:29;15.47;;;8.50;;
14474;SDS011;7323;50.848;4.334;2023-09-07T06:56:56;12.10;;;9.00;;
14474;SDS011;7323;50.848;4.334;2023-09-07T06:59:21;14.60;;;7.67;;
14474;SDS011;7323;50.848;4.334;2023-09-07T07:01:48;10.93;;;6.83;;
14474;SDS011;7323;50.848;4.334;2023-09-07T07:04:14;10.87;;;7.00;;
14474;SDS011;7323;50.848;4.334;2023-09-07T07:06:39;13.50;;;6.63;;
14474;SDS011;7323;50.848;4.334;2023-09-07T07:09:05;9.27;;;5.93;;
14474;SDS011;7323;50.848;4.334;2023-09-07T07:11:31;10.37;;;6.50;;
14474;SDS011;7323;50.848;4.334;2023-09-07T07:13:57;10.00;;;5.83;;
14474;SDS011;7323;50.848;4.334;2023-09-07T07:16:22;7.73;;;5.60;;
14474;SDS011;7323;50.848;4.334;2023-09-07T07:18:48;9.27;;;5.47;;
14474;SDS011;7323;50.848;4.334;2023-09-07T07:21:14;11.13;;;5.37;;
14474;SDS011;7323;50.848;4.334;2023-09-07T07:23:40;8.83;;;4.90;;
14474;SDS011;7323;50.848;4.334;2023-09-07T07:26:06;9.03;;;5.20;;
14474;SDS011;7323;50.848;4.334;2023-09-07T07:28:32;9.23;;;5.17;;
14474;SDS011;7323;50.848;4.334;2023-09-07T07:30:57;13.80;;;5.63;;
14474;SDS011;7323;50.848;4.334;2023-09-07T07:33:23;8.77;;;5.40;;
14474;SDS011;7323;50.848;4.334;2023-09-07T07:35:49;7.70;;;5.53;;
14474;SDS011;7323;50.848;4.334;2023-09-07T07:38:15;7.10;;;5.20;;
14474;SDS011;7323;50.848;4.334;2023-09-07T07:40:42;6.00;;;4.57;;
14474;SDS011;7323;50.848;4.334;2023-09-07T07:43:08;10.10;;;5.30;;
14474;SDS011;7323;50.848;4.334;2023-09-07T07:45:35;6.87;;;5.10;;
14474;SDS011;7323;50.848;4.334;2023-09-07T07:48:03;7.07;;;4.80;;
14474;SDS011;7323;50.848;4.334;2023-09-07T07:50:30;10.13;;;4.90;;
14474;SDS011;7323;50.848;4.334;2023-09-07T07:52:56;8.23;;;5.20;;
14474;SDS011;7323;50.848;4.334;2023-09-07T07:55:22;9.77;;;5.07;;
14474;SDS011;7323;50.848;4.334;2023-09-07T07:57:48;10.47;;;5.67;;
14474;SDS011;7323;50.848;4.334;2023-09-07T08:00:13;10.03;;;5.17;;
14474;SDS011;7323;50.848;4.334;2023-09-07T08:02:39;8.57;;;4.63;;
14474;SDS011;7323;50.848;4.334;2023-09-07T08:05:05;7.03;;;4.30;;
14474;SDS011;7323;50.848;4.334;2023-09-07T08:07:31;8.53;;;4.30;;
14474;SDS011;7323;50.848;4.334;2023-09-07T08:09:57;8.20;;;4.83;;
14474;SDS011;7323;50.848;4.334;2023-09-07T08:12:22;5.33;;;4.20;;
14474;SDS011;7323;50.848;4.334;2023-09-07T08:14:48;9.53;;;4.47;;
14474;SDS011;7323;50.848;4.334;2023-09-07T08:17:14;12.80;;;5.37;;
14474;SDS011;7323;50.848;4.334;2023-09-07T08:19:40;7.23;;;4.40;;
14474;SDS011;7323;50.848;4.334;2023-09-07T08:22:05;7.03;;;4.40;;
14474;SDS011;7323;50.848;4.334;2023-09-07T08:24:32;6.17;;;4.17;;
14474;SDS011;7323;50.848;4.334;2023-09-07T08:26:58;7.33;;;3.83;;
14474;SDS011;7323;50.848;4.334;2023-09-07T08:29:25;6.47;;;3.93;;
14474;SDS011;7323;50.848;4.334;2023-09-07T08:31:52;7.80;;;4.07;;
14474;SDS011;7323;50.848;4.334;2023-09-07T08:34:18;5.60;;;3.60;;
14474;SDS011;7323;50.848;4.334;2023-09-07T08:36:47;7.40;;;3.70;;
14474;SDS011;7323;50.848;4.334;2023-09-07T08:39:14;9.80;;;3.93;;
14474;SDS011;7323;50.848;4.334;2023-09-07T08:41:44;6.33;;;3.43;;
14474;SDS011;7323;50.848;4.334;2023-09-07T08:44:11;7.67;;;3.70;;
14474;SDS011;7323;50.848;4.334;2023-09-07T08:46:39;6.90;;;3.73;;
14474;SDS011;7323;50.848;4.334;2023-09-07T08:49:06;7.70;;;3.97;;
14474;SDS011;7323;50.848;4.334;2023-09-07T08:51:34;8.57;;;3.60;;
14474;SDS011;7323;50.848;4.334;2023-09-07T08:54:03;8.50;;;3.60;;
14474;SDS011;7323;50.848;4.334;2023-09-07T08:56:30;5.78;;;3.65;;
14474;SDS011;7323;50.848;4.334;2023-09-07T08:58:56;4.50;;;3.42;;
14474;SDS011;7323;50.848;4.334;2023-09-07T09:01:22;5.60;;;3.87;;
14474;SDS011;7323;50.848;4.334;2023-09-07T09:03:49;6.60;;;3.33;;
14474;SDS011;7323;50.848;4.334;2023-09-07T09:06:20;4.73;;;3.40;;
14474;SDS011;7323;50.848;4.334;2023-09-07T09:08:50;5.63;;;3.53;;
14474;SDS011;7323;50.848;4.334;2023-09-07T09:11:18;6.93;;;3.90;;
14474;SDS011;7323;50.848;4.334;2023-09-07T09:13:44;3.97;;;3.37;;
14474;SDS011;7323;50.848;4.334;2023-09-07T09:16:11;4.80;;;3.80;;
14474;SDS011;7323;50.848;4.334;2023-09-07T09:18:38;4.80;;;3.40;;
14474;SDS011;7323;50.848;4.334;2023-09-07T09:21:13;7.10;;;3.57;;
14474;SDS011;7323;50.848;4.334;2023-09-07T09:23:40;9.63;;;8.63;;
14474;SDS011;7323;50.848;4.334;2023-09-07T09:26:06;7.70;;;4.67;;
14474;SDS011;7323;50.848;4.334;2023-09-07T09:28:32;5.70;;;3.63;;
14474;SDS011;7323;50.848;4.334;2023-09-07T09:30:59;5.97;;;3.20;;
14474;SDS011;7323;50.848;4.334;2023-09-07T09:33:32;5.35;;;3.13;;
14474;SDS011;7323;50.848;4.334;2023-09-07T09:36:05;4.10;;;3.22;;
14474;SDS011;7323;50.848;4.334;2023-09-07T09:38:40;4.47;;;3.03;;
14474;SDS011;7323;50.848;4.334;2023-09-07T09:41:13;9.10;;;3.50;;
14474;SDS011;7323;50.848;4.334;2023-09-07T09:43:40;7.30;;;3.33;;
14474;SDS011;7323;50.848;4.334;2023-09-07T09:46:05;5.38;;;3.40;;
14474;SDS011;7323;50.848;4.334;2023-09-07T09:48:33;7.33;;;3.43;;
14474;SDS011;7323;50.848;4.334;2023-09-07T09:51:00;6.82;;;3.50;;
14474;SDS011;7323;50.848;4.334;2023-09-07T09:53:27;4.50;;;3.28;;
14474;SDS011;7323;50.848;4.334;2023-09-07T09:55:53;6.83;;;3.67;;
14474;SDS011;7323;50.848;4.334;2023-09-07T09:58:19;12.47;;;4.40;;
14474;SDS011;7323;50.848;4.334;2023-09-07T10:00:45;9.50;;;4.55;;
14474;SDS011;7323;50.848;4.334;2023-09-07T10:03:23;6.70;;;3.72;;
14474;SDS011;7323;50.848;4.334;2023-09-07T10:06:08;5.00;;;3.50;;
14474;SDS011;7323;50.848;4.334;2023-09-07T10:08:34;6.60;;;3.63;;
14474;SDS011;7323;50.848;4.334;2023-09-07T10:11:00;4.80;;;3.50;;
14474;SDS011;7323;50.848;4.334;2023-09-07T10:13:36;4.55;;;3.50;;
14474;SDS011;7323;50.848;4.334;2023-09-07T10:16:02;8.15;;;4.00;;
14474;SDS011;7323;50.848;4.334;2023-09-07T10:18:35;8.70;;;4.05;;
14474;SDS011;7323;50.848;4.334;2023-09-07T10:21:02;5.97;;;3.90;;
14474;SDS011;7323;50.848;4.334;2023-09-07T10:23:35;7.05;;;4.00;;
14474;SDS011;7323;50.848;4.334;2023-09-07T10:26:03;7.20;;;3.88;;
14474;SDS011;7323;50.848;4.334;2023-09-07T10:28:30;8.48;;;4.22;;
14474;SDS011;7323;50.848;4.334;2023-09-07T10:33:25;5.05;;;3.90;;
14474;SDS011;7323;50.848;4.334;2023-09-07T10:35:52;7.10;;;3.90;;
14474;SDS011;7323;50.848;4.334;2023-09-07T10:38:18;4.40;;;3.58;;
14474;SDS011;7323;50.848;4.334;2023-09-07T10:40:44;4.90;;;3.60;;
14474;SDS011;7323;50.848;4.334;2023-09-07T10:43:31;4.78;;;3.67;;
14474;SDS011;7323;50.848;4.334;2023-09-07T10:45:58;5.00;;;3.78;;
14474;SDS011;7323;50.848;4.334;2023-09-07T10:48:25;4.07;;;3.67;;
14474;SDS011;7323;50.848;4.334;2023-09-07T10:50:53;8.07;;;3.78;;
14474;SDS011;7323;50.848;4.334;2023-09-07T10:53:29;5.68;;;3.83;;
14474;SDS011;7323;50.848;4.334;2023-09-07T10:55:57;6.25;;;3.90;;
14474;SDS011;7323;50.848;4.334;2023-09-07T10:58:25;7.07;;;3.80;;
14474;SDS011;7323;50.848;4.334;2023-09-07T11:01:01;8.25;;;4.20;;
14474;SDS011;7323;50.848;4.334;2023-09-07T11:03:30;7.85;;;4.63;;
14474;SDS011;7323;50.848;4.334;2023-09-07T11:06:01;7.50;;;3.95;;
14474;SDS011;7323;50.848;4.334;2023-09-07T11:08:31;7.60;;;4.38;;
14474;SDS011;7323;50.848;4.334;2023-09-07T11:11:01;7.10;;;4.07;;
14474;SDS011;7323;50.848;4.334;2023-09-07T11:13:27;7.28;;;4.10;;
14474;SDS011;7323;50.848;4.334;2023-09-07T11:15:54;4.63;;;3.90;;
14474;SDS011;7323;50.848;4.334;2023-09-07T11:18:21;9.38;;;4.50;;
14474;SDS011;7323;50.848;4.334;2023-09-07T11:20:48;6.45;;;4.32;;
14474;SDS011;7323;50.848;4.334;2023-09-07T11:23:14;9.23;;;4.03;;
14474;SDS011;7323;50.848;4.334;2023-09-07T11:25:42;12.85;;;4.70;;
14474;SDS011;7323;50.848;4.334;2023-09-07T11:28:08;15.02;;;4.15;;
14474;SDS011;7323;50.848;4.334;2023-09-07T11:30:35;5.68;;;5.03;;
14474;SDS011;7323;50.848;4.334;2023-09-07T11:33:04;5.97;;;4.10;;
14474;SDS011;7323;50.848;4.334;2023-09-07T11:35:31;4.53;;;3.33;;
14474;SDS011;7323;50.848;4.334;2023-09-07T11:38:01;4.45;;;3.70;;
14474;SDS011;7323;50.848;4.334;2023-09-07T11:40:29;5.28;;;3.70;;
14474;SDS011;7323;50.848;4.334;2023-09-07T11:42:56;6.53;;;3.47;;
14474;SDS011;7323;50.848;4.334;2023-09-07T11:45:22;5.57;;;3.20;;
14474;SDS011;7323;50.848;4.334;2023-09-07T11:47:48;6.88;;;3.63;;
14474;SDS011;7323;50.848;4.334;2023-09-07T11:50:16;4.15;;;2.95;;
14474;SDS011;7323;50.848;4.334;2023-09-07T11:52:42;7.85;;;3.75;;
14474;SDS011;7323;50.848;4.334;2023-09-07T11:55:08;5.22;;;2.92;;
14474;SDS011;7323;50.848;4.334;2023-09-07T11:57:35;4.78;;;2.85;;
14474;SDS011;7323;50.848;4.334;2023-09-07T12:00:02;7.07;;;3.28;;
14474;SDS011;7323;50.848;4.334;2023-09-07T12:02:30;7.28;;;2.97;;
14474;SDS011;7323;50.848;4.334;2023-09-07T12:04:56;6.28;;;3.25;;
14474;SDS011;7323;50.848;4.334;2023-09-07T12:07:21;7.20;;;3.20;;
14474;SDS011;7323;50.848;4.334;2023-09-07T12:09:47;7.00;;;3.33;;
14474;SDS011;7323;50.848;4.334;2023-09-07T12:12:13;4.20;;;2.90;;
14474;SDS011;7323;50.848;4.334;2023-09-07T12:14:39;5.47;;;3.25;;
14474;SDS011;7323;50.848;4.334;2023-09-07T12:17:05;4.35;;;2.92;;
14474;SDS011;7323;50.848;4.334;2023-09-07T12:19:31;5.78;;;2.75;;
14474;SDS011;7323;50.848;4.334;2023-09-07T12:21:56;6.25;;;3.10;;
14474;SDS011;7323;50.848;4.334;2023-09-07T12:24:22;6.50;;;3.20;;
14474;SDS011;7323;50.848;4.334;2023-09-07T12:26:48;7.13;;;3.03;;
14474;SDS011;7323;50.848;4.334;2023-09-07T12:29:13;6.45;;;3.08;;
14474;SDS011;7323;50.848;4.334;2023-09-07T12:31:39;7.40;;;3.67;;
14474;SDS011;7323;50.848;4.334;2023-09-07T12:34:05;9.70;;;3.25;;
14474;SDS011;7323;50.848;4.334;2023-09-07T12:36:31;8.45;;;3.38;;
14474;SDS011;7323;50.848;4.334;2023-09-07T12:38:56;5.25;;;3.03;;
14474;SDS011;7323;50.848;4.334;2023-09-07T12:41:27;4.60;;;3.60;;
14474;SDS011;7323;50.848;4.334;2023-09-07T12:43:56;4.72;;;3.53;;
14474;SDS011;7323;50.848;4.334;2023-09-07T12:46:21;5.85;;;3.30;;
14474;SDS011;7323;50.848;4.334;2023-09-07T12:48:47;6.13;;;3.50;;
14474;SDS011;7323;50.848;4.334;2023-09-07T12:51:13;12.35;;;3.55;;
14474;SDS011;7323;50.848;4.334;2023-09-07T12:53:38;4.55;;;2.97;;
14474;SDS011;7323;50.848;4.334;2023-09-07T12:56:05;7.50;;;3.67;;
14474;SDS011;7323;50.848;4.334;2023-09-07T12:58:30;5.57;;;3.50;;
14474;SDS011;7323;50.848;4.334;2023-09-07T13:00:56;6.72;;;3.72;;
14474;SDS011;7323;50.848;4.334;2023-09-07T13:03:22;4.38;;;3.15;;
14474;SDS011;7323;50.848;4.334;2023-09-07T13:05:48;5.78;;;3.20;;
14474;SDS011;7323;50.848;4.334;2023-09-07T13:08:16;3.45;;;2.85;;
14474;SDS011;7323;50.848;4.334;2023-09-07T13:10:42;5.03;;;3.42;;
14474;SDS011;7323;50.848;4.334;2023-09-07T13:13:09;5.80;;;3.15;;
14474;SDS011;7323;50.848;4.334;2023-09-07T13:15:37;5.07;;;3.38;;
14474;SDS011;7323;50.848;4.334;2023-09-07T13:18:03;4.78;;;3.40;;
14474;SDS011;7323;50.848;4.334;2023-09-07T13:20:34;4.38;;;3.10;;
14474;SDS011;7323;50.848;4.334;2023-09-07T13:23:00;6.80;;;3.67;;
14474;SDS011;7323;50.848;4.334;2023-09-07T13:25:27;7.10;;;3.83;;
14474;SDS011;7323;50.848;4.334;2023-09-07T13:27:53;6.65;;;3.30;;
14474;SDS011;7323;50.848;4.334;2023-09-07T13:30:18;4.97;;;3.10;;
14474;SDS011;7323;50.848;4.334;2023-09-07T13:32:44;5.90;;;3.15;;
14474;SDS011;7323;50.848;4.334;2023-09-07T13:35:12;4.97;;;3.50;;
14474;SDS011;7323;50.848;4.334;2023-09-07T13:37:40;5.65;;;3.50;;
14474;SDS011;7323;50.848;4.334;2023-09-07T13:40:07;7.80;;;3.33;;
14474;SDS011;7323;50.848;4.334;2023-09-07T13:42:33;7.15;;;3.85;;
14474;SDS011;7323;50.848;4.334;2023-09-07T13:44:59;4.95;;;3.30;;
14474;SDS011;7323;50.848;4.334;2023-09-07T13:47:25;12.20;;;4.20;;
14474;SDS011;7323;50.848;4.334;2023-09-07T13:49:51;6.43;;;3.45;;
14474;SDS011;7323;50.848;4.334;2023-09-07T13:52:17;6.20;;;3.75;;
14474;SDS011;7323;50.848;4.334;2023-09-07T13:54:42;6.50;;;3.53;;
14474;SDS011;7323;50.848;4.334;2023-09-07T13:57:09;6.18;;;4.00;;
14474;SDS011;7323;50.848;4.334;2023-09-07T13:59:34;6.28;;;3.47;;
14474;SDS011;7323;50.848;4.334;2023-09-07T14:02:01;5.97;;;3.53;;
14474;SDS011;7323;50.848;4.334;2023-09-07T14:04:27;5.72;;;3.75;;
14474;SDS011;7323;50.848;4.334;2023-09-07T14:06:55;7.50;;;3.95;;
14474;SDS011;7323;50.848;4.334;2023-09-07T14:09:21;6.10;;;4.15;;
14474;SDS011;7323;50.848;4.334;2023-09-07T14:11:48;8.65;;;4.40;;
14474;SDS011;7323;50.848;4.334;2023-09-07T14:14:14;9.20;;;3.70;;
14474;SDS011;7323;50.848;4.334;2023-09-07T14:16:41;4.85;;;3.30;;
14474;SDS011;7323;50.848;4.334;2023-09-07T14:19:07;8.27;;;3.90;;
14474;SDS011;7323;50.848;4.334;2023-09-07T14:21:33;5.70;;;3.63;;
14474;SDS011;7323;50.848;4.334;2023-09-07T14:23:58;8.48;;;4.57;;
14474;SDS011;7323;50.848;4.334;2023-09-07T14:26:25;9.63;;;3.90;;
14474;SDS011;7323;50.848;4.334;2023-09-07T14:28:50;4.90;;;3.80;;
14474;SDS011;7323;50.848;4.334;2023-09-07T14:31:16;7.05;;;3.30;;
14474;SDS011;7323;50.848;4.334;2023-09-07T14:33:42;5.00;;;3.38;;
14474;SDS011;7323;50.848;4.334;2023-09-07T14:36:07;5.38;;;3.17;;
14474;SDS011;7323;50.848;4.334;2023-09-07T14:38:34;5.30;;;3.38;;
14474;SDS011;7323;50.848;4.334;2023-09-07T14:41:05;5.97;;;3.05;;
14474;SDS011;7323;50.848;4.334;2023-09-07T14:43:31;4.88;;;3.20;;
14474;SDS011;7323;50.848;4.334;2023-09-07T14:45:57;5.15;;;3.30;;
14474;SDS011;7323;50.848;4.334;2023-09-07T14:48:22;6.95;;;3.20;;
14474;SDS011;7323;50.848;4.334;2023-09-07T14:50:48;7.15;;;3.47;;
14474;SDS011;7323;50.848;4.334;2023-09-07T14:53:14;8.70;;;3.53;;
14474;SDS011;7323;50.848;4.334;2023-09-07T14:55:40;6.15;;;3.08;;
14474;SDS011;7323;50.848;4.334;2023-09-07T14:58:05;8.68;;;3.15;;
14474;SDS011;7323;50.848;4.334;2023-09-07T15:00:34;4.78;;;3.20;;
14474;SDS011;7323;50.848;4.334;2023-09-07T15:02:59;6.15;;;3.08;;
14474;SDS011;7323;50.848;4.334;2023-09-07T15:05:25;9.00;;;3.35;;
14474;SDS011;7323;50.848;4.334;2023-09-07T15:07:51;8.88;;;3.28;;
14474;SDS011;7323;50.848;4.334;2023-09-07T15:10:16;5.63;;;3.30;;
14474;SDS011;7323;50.848;4.334;2023-09-07T15:12:43;7.13;;;2.85;;
14474;SDS011;7323;50.848;4.334;2023-09-07T15:15:09;4.53;;;3.40;;
14474;SDS011;7323;50.848;4.334;2023-09-07T15:17:38;9.30;;;3.67;;